Norwalk, CT

2:52 AM EST on November 29, 2014 (GMT -0500)
Autumn Hill | Change Station
CLOSE
Current Station
Personal Weather Station
Location: Weston, CT
Elevation: 344 ft
Nearby Weather Stations

Elev 344 ft 41.22 °N, 73.39 °W | Updated 5 seconds ago

Clear
Clear
18.5 °F
Feels Like 18 °F
N
0.0
Wind Variable Wind from West
Gusts 0.7 mph

Today
High -- | Low -- °F
--% Chance of Precip.
Yesterday
High -- | Low -- °F
Precip. -- in
6:57 AM 4:26 PM
Waxing Crescent, 49% visible
Pressure 30.30 in
Visibility 10.0 miles
Clouds Clear
Windchill 18 °F
Dew Point 12 °F
Humidity 74%
Rainfall 0.00 in
Snow Depth Not available.
UV 0 out of 12
Pollen .10 out of 12
Air Quality Not available.
Flu Activity Not available.
METAR KHPN 290656Z 00000KT 10SM CLR M05/M10 A3026 RMK AO2 SLP258 T10501100

More Conditions Fewer Conditions

Pressure 30.30 in
Visibility 10.0 miles
Clouds Clear
Windchill 18 °F
Dew Point 12 °F
Humidity 74%
Rainfall 0.00 in
Snow Depth Not available.
UV 0 out of 12
Pollen .10 out of 12
Air Quality Not available.
Flu Activity Not available.
METAR KHPN 290656Z 00000KT 10SM CLR M05/M10 A3026 RMK AO2 SLP258 T10501100

More Conditions Fewer Conditions

10-Day Weather Forecast

Almanac

Astronomy

Nov. 29, 2014 Rise Set
Actual Time
Civil Twilight
Nautical Twilight
Astronomical Twilight
Moon
Length of Visible Light
Length of Day
Tomorrow will be .
, % of the Moon is Illuminated

Today's Extremes

State Highs State Lows

Community

WunderPhotos

Upload Photos

1,774,432 photos uploaded!

WunderBlogs® & News

Nearby

Air Quality

  Air Quality AQ Index Pollutant
Not available.

Snow Depth

Station Depth Elevation

Earthquake Activity

City Distance Mag. Time & Date
Minimum magnitude displayed is 2.5.

Coastal Water Temperatures

Place Temperature

Nearby Weather Stations